createdAt,value
2022-09-03T00:02:02.794Z,13.69
2022-09-03T00:07:22.361Z,13.59
2022-09-03T00:12:40.515Z,13.58
2022-09-03T00:17:55.509Z,13.47
2022-09-03T00:23:04.160Z,13.41
2022-09-03T00:28:25.815Z,13.36
2022-09-03T00:33:33.174Z,13.29
2022-09-03T00:38:38.567Z,13.19
2022-09-03T00:44:11.503Z,13.10
2022-09-03T00:49:51.039Z,13.02
2022-09-03T00:55:11.218Z,12.97
2022-09-03T01:00:20.747Z,12.92
2022-09-03T01:05:57.426Z,12.86
2022-09-03T01:11:50.224Z,12.78
2022-09-03T01:17:21.169Z,12.69
2022-09-03T01:23:00.959Z,12.64
2022-09-03T01:28:22.675Z,12.59
2022-09-03T01:33:44.524Z,12.54
2022-09-03T01:39:06.559Z,12.48
2022-09-03T01:44:09.916Z,12.46
2022-09-03T01:49:51.400Z,12.38
2022-09-03T01:55:11.081Z,12.34
2022-09-03T02:00:20.679Z,12.26
2022-09-03T02:05:27.532Z,12.21
2022-09-03T02:10:44.356Z,12.16
2022-09-03T02:15:52.934Z,12.15
2022-09-03T02:20:56.873Z,12.17
2022-09-03T02:26:03.851Z,12.15
2022-09-03T02:31:07.415Z,12.13
2022-09-03T02:36:15.363Z,12.14
2022-09-03T02:41:18.449Z,12.10
2022-09-03T02:46:35.899Z,12.11
2022-09-03T02:51:45.167Z,12.08
2022-09-03T02:56:49.937Z,12.03
2022-09-03T03:01:52.896Z,12.01
2022-09-03T03:06:56.065Z,11.97
2022-09-03T03:11:58.956Z,11.93
2022-09-03T03:17:01.860Z,11.89
2022-09-03T03:22:04.826Z,11.86
2022-09-03T03:27:10.843Z,11.86
2022-09-03T03:32:13.672Z,11.79
2022-09-03T03:37:16.638Z,11.76
2022-09-03T03:42:19.517Z,11.70
2022-09-03T03:47:22.414Z,11.66
2022-09-03T03:52:27.179Z,11.63
2022-09-03T03:57:32.484Z,11.60
2022-09-03T04:02:39.055Z,11.56
2022-09-03T04:07:42.210Z,11.51
2022-09-03T04:12:45.077Z,11.49
2022-09-03T04:17:47.794Z,11.49
2022-09-03T04:22:52.051Z,11.48
2022-09-03T04:27:55.180Z,11.51
2022-09-03T04:33:00.602Z,11.53
2022-09-03T04:38:04.415Z,11.61
2022-09-03T04:43:07.321Z,11.68
2022-09-03T04:48:12.071Z,11.77
2022-09-03T04:53:15.136Z,11.91
2022-09-03T04:58:18.124Z,12.04
2022-09-03T05:03:22.299Z,12.20
2022-09-03T05:08:26.597Z,12.31
2022-09-03T05:13:29.907Z,12.50
2022-09-03T05:18:33.817Z,12.63
2022-09-03T05:23:43.277Z,12.83
2022-09-03T05:28:47.531Z,12.96
2022-09-03T05:33:53.692Z,13.11
2022-09-03T05:39:01.059Z,13.26
2022-09-03T05:44:06.270Z,13.45
2022-09-03T05:49:09.212Z,13.65
2022-09-03T05:54:12.215Z,13.79
2022-09-03T05:59:15.274Z,13.95
2022-09-03T06:04:19.093Z,14.07
2022-09-03T06:09:23.321Z,14.19
2022-09-03T06:14:26.897Z,14.34
2022-09-03T06:19:29.687Z,14.49
2022-09-03T06:24:32.459Z,14.68
2022-09-03T06:29:36.389Z,14.90
2022-09-03T06:34:39.803Z,15.14
2022-09-03T06:39:42.666Z,15.34
2022-09-03T06:44:45.594Z,15.55
2022-09-03T06:49:48.422Z,15.79
2022-09-03T06:54:51.619Z,16.06
2022-09-03T06:59:55.492Z,16.30
2022-09-03T07:04:58.534Z,16.55
2022-09-03T07:10:02.102Z,16.78
2022-09-03T07:15:05.432Z,16.99
2022-09-03T07:20:08.582Z,17.23
2022-09-03T07:25:12.294Z,17.49
2022-09-03T07:30:15.251Z,17.75
2022-09-03T07:35:19.796Z,18.03
2022-09-03T07:40:24.627Z,18.40
2022-09-03T07:45:28.609Z,19.74
2022-09-03T07:50:37.832Z,20.77
2022-09-03T07:55:40.758Z,20.97
2022-09-03T08:00:44.001Z,20.87
2022-09-03T08:05:48.212Z,20.73
2022-09-03T08:10:51.087Z,20.63
2022-09-03T08:15:56.273Z,20.53
2022-09-03T08:21:00.616Z,20.48
2022-09-03T08:26:03.768Z,20.54
2022-09-03T08:31:17.147Z,20.62
2022-09-03T08:36:31.650Z,20.74
2022-09-03T08:41:50.879Z,20.85
2022-09-03T08:47:20.788Z,20.98
2022-09-03T08:52:32.634Z,21.06
2022-09-03T08:57:46.159Z,21.36
2022-09-03T09:03:30.514Z,21.50
2022-09-03T09:09:08.382Z,21.56
2022-09-03T09:14:52.025Z,21.59
2022-09-03T09:20:38.735Z,21.75
2022-09-03T09:25:50.672Z,21.83
2022-09-03T09:30:57.535Z,22.02
2022-09-03T09:36:19.528Z,22.27
2022-09-03T09:41:27.601Z,22.41
2022-09-03T09:46:40.135Z,22.57
2022-09-03T09:51:43.236Z,22.51
2022-09-03T09:56:58.431Z,22.43
2022-09-03T10:02:28.165Z,22.61
2022-09-03T10:07:33.221Z,22.81
2022-09-03T10:12:45.799Z,23.05
2022-09-03T10:18:11.012Z,23.15
2022-09-03T10:23:19.072Z,23.34
2022-09-03T10:28:31.665Z,23.65
2022-09-03T10:34:01.909Z,23.53
2022-09-03T10:39:43.157Z,23.20
